Time;durP1;ratioP1;P1;durP2;ratioP2;P2;SDS_P1;SDS_P2;PMS_P1;PMS_P2;Temp;Humidity;BMP_temperature;BMP_pressure;BME280_temperature;BME280_humidity;BME280_pressure;Samples;Min_cycle;Max_cycle;Signal;HPM_P1;HPM_P2
2022/04/26 03:37:12;;;;;;;5.50;1.27;;;;;;;;;;4972238;28;20925;-68
2022/04/26 03:39:42;;;;;;;9.30;1.73;;;;;;;;;;4972113;28;20049;-67
2022/04/26 03:42:08;;;;;;;6.07;1.55;;;;;;;;;;4986935;28;20424;-67
2022/04/26 03:44:34;;;;;;;8.30;1.67;;;;;;;;;;4971386;28;20484;-69
2022/04/26 03:47:00;;;;;;;3.88;1.63;;;;;;;;;;4971958;28;20061;-69
2022/04/26 03:49:27;;;;;;;6.95;1.85;;;;;;;;;;4971911;28;20090;-69
2022/04/26 03:51:53;;;;;;;5.45;1.45;;;;;;;;;;4971878;28;20179;-69
2022/04/26 03:54:22;;;;;;;12.60;1.67;;;;;;;;;;4972117;28;20138;-68
2022/04/26 03:56:48;;;;;;;;;;;;;;;;;;4971056;28;20552;-68
2022/04/26 03:59:15;;;;;;;5.13;1.45;;;;;;;;;;4971975;28;19966;-69
2022/04/26 04:01:41;;;;;;;2.78;1.30;;;;;;;;;;4970548;28;20092;-68
2022/04/26 04:04:07;;;;;;;3.72;1.50;;;;;;;;;;4970629;28;20054;-68
2022/04/26 04:06:33;;;;;;;2.88;1.20;;;;;;;;;;4971933;28;20101;-68
2022/04/26 04:08:59;;;;;;;5.55;1.50;;;;;;;;;;4971120;28;20046;-69
2022/04/26 04:11:25;;;;;;;3.72;1.40;;;;;;;;;;4971663;28;20166;-69
2022/04/26 04:13:51;;;;;;;3.95;1.52;;;;;;;;;;4971308;28;20716;-69
2022/04/26 04:16:17;;;;;;;3.35;1.55;;;;;;;;;;4971460;28;20043;-69
2022/04/26 04:21:28;;;;;;;4.97;1.63;;;;;;;;;;4971065;28;20109;-69
2022/04/26 04:23:54;;;;;;;3.08;1.15;;;;;;;;;;4971200;28;20137;-69
2022/04/26 04:26:20;;;;;;;4.63;1.48;;;;;;;;;;4971536;28;20134;-69
2022/04/26 04:28:46;;;;;;;3.42;1.10;;;;;;;;;;4970236;28;20050;-69
2022/04/26 04:31:12;;;;;;;8.13;1.45;;;;;;;;;;4970730;28;20051;-69
2022/04/26 04:33:39;;;;;;;3.28;1.50;;;;;;;;;;4971042;28;20094;-69
2022/04/26 04:36:05;;;;;;;6.38;1.67;;;;;;;;;;4971106;28;20433;-69
2022/04/26 04:38:31;;;;;;;3.15;1.58;;;;;;;;;;4971171;28;20054;-70
2022/04/26 04:40:57;;;;;;;4.05;1.60;;;;;;;;;;4971095;28;20057;-69
2022/04/26 04:43:23;;;;;;;3.10;1.27;;;;;;;;;;4971001;28;20049;-69
2022/04/26 04:45:49;;;;;;;2.33;1.30;;;;;;;;;;4970640;28;20158;-69
2022/04/26 04:48:16;;;;;;;3.88;1.45;;;;;;;;;;4970206;28;20509;-69
2022/04/26 04:50:42;;;;;;;5.70;1.48;;;;;;;;;;4970817;28;20091;-68
2022/04/26 04:53:08;;;;;;;2.75;1.27;;;;;;;;;;4970677;28;20054;-68
2022/04/26 04:55:34;;;;;;;2.63;1.20;;;;;;;;;;4970834;28;20043;-67
2022/04/26 04:58:00;;;;;;;3.35;1.17;;;;;;;;;;4969588;28;20082;-67
2022/04/26 05:00:26;;;;;;;4.82;1.30;;;;;;;;;;4971140;28;20061;-68
2022/04/26 05:02:53;;;;;;;3.15;1.05;;;;;;;;;;4971032;28;20586;-68
2022/04/26 05:05:19;;;;;;;3.83;1.30;;;;;;;;;;4971033;28;20053;-68
2022/04/26 05:07:45;;;;;;;3.17;1.23;;;;;;;;;;4961858;28;20055;-67
2022/04/26 05:10:11;;;;;;;4.70;1.42;;;;;;;;;;4951646;28;20054;-67
2022/04/26 05:12:37;;;;;;;3.08;1.30;;;;;;;;;;4959420;28;20575;-67
2022/04/26 05:15:03;;;;;;;2.30;1.27;;;;;;;;;;4970533;28;20046;-68
2022/04/26 05:17:29;;;;;;;2.38;1.25;;;;;;;;;;4970603;28;20504;-68
2022/04/26 05:19:55;;;;;;;2.25;1.40;;;;;;;;;;4969163;28;20093;-68
2022/04/26 05:22:22;;;;;;;3.90;1.88;;;;;;;;;;4951363;28;20956;-67
2022/04/26 05:24:54;;;;;;;2.25;1.20;;;;;;;;;;4951113;29;20047;-67
2022/04/26 05:27:24;;;;;;;3.65;1.17;;;;;;;;;;4950941;28;20058;-68
2022/04/26 05:29:50;;;;;;;4.75;1.23;;;;;;;;;;4949076;28;20055;-68
2022/04/26 05:32:23;;;;;;;2.30;1.35;;;;;;;;;;4951161;28;20508;-68
2022/04/26 05:34:55;;;;;;;3.60;1.23;;;;;;;;;;4951071;29;20075;-68
2022/04/26 05:37:21;;;;;;;1.80;1.15;;;;;;;;;;4950463;29;20078;-68
2022/04/26 05:39:47;;;;;;;3.47;1.45;;;;;;;;;;4951018;29;20440;-68
2022/04/26 05:42:13;;;;;;;3.08;1.38;;;;;;;;;;4950902;29;20500;-69
2022/04/26 05:44:39;;;;;;;3.70;1.50;;;;;;;;;;4950669;29;20098;-69
2022/04/26 05:47:08;;;;;;;1.63;0.98;;;;;;;;;;4951113;29;20047;-68
2022/04/26 05:49:34;;;;;;;2.25;1.40;;;;;;;;;;4948905;29;20043;-68
2022/04/26 05:52:01;;;;;;;2.92;1.20;;;;;;;;;;4951081;28;20057;-68
2022/04/26 05:54:27;;;;;;;2.80;1.38;;;;;;;;;;4950923;28;20057;-68
2022/04/26 05:56:53;;;;;;;3.95;1.30;;;;;;;;;;4950530;29;20062;-68
2022/04/26 05:59:20;;;;;;;2.15;1.10;;;;;;;;;;4950944;29;20051;-68
2022/04/26 06:01:46;;;;;;;2.50;1.05;;;;;;;;;;4949923;28;20501;-68
2022/04/26 06:04:12;;;;;;;3.80;1.25;;;;;;;;;;4951115;29;20101;-68
2022/04/26 06:06:38;;;;;;;4.45;1.52;;;;;;;;;;4950885;28;20051;-68
2022/04/26 06:09:05;;;;;;;2.97;1.30;;;;;;;;;;4950724;28;20152;-67
2022/04/26 06:11:31;;;;;;;2.45;1.30;;;;;;;;;;4950285;29;20055;-68
2022/04/26 06:13:57;;;;;;;2.28;1.25;;;;;;;;;;4950328;29;20054;-68
2022/04/26 06:16:23;;;;;;;3.70;1.27;;;;;;;;;;4950810;28;20394;-67
2022/04/26 06:18:49;;;;;;;3.28;1.08;;;;;;;;;;4949158;29;20489;-69
2022/04/26 06:21:15;;;;;;;1.95;1.10;;;;;;;;;;4950754;29;20047;-66
2022/04/26 06:23:41;;;;;;;2.05;1.23;;;;;;;;;;4949272;29;20525;-67
2022/04/26 06:26:07;;;;;;;3.53;1.05;;;;;;;;;;4950508;28;20465;-67
2022/04/26 06:28:33;;;;;;;2.38;1.20;;;;;;;;;;4950210;29;20051;-67
2022/04/26 06:31:00;;;;;;;4.35;1.20;;;;;;;;;;4950547;28;20043;-66
2022/04/26 06:33:26;;;;;;;2.75;1.40;;;;;;;;;;4950509;29;20844;-67
2022/04/26 06:35:52;;;;;;;3.15;1.00;;;;;;;;;;4950430;29;20387;-67
2022/04/26 06:38:22;;;;;;;3.40;1.08;;;;;;;;;;4950452;28;20142;-67
2022/04/26 06:40:48;;;;;;;3.08;1.15;;;;;;;;;;4949276;28;20047;-67
2022/04/26 06:43:14;;;;;;;2.85;1.55;;;;;;;;;;4952882;29;20059;-67
2022/04/26 06:45:40;;;;;;;3.05;1.20;;;;;;;;;;4954077;28;20409;-66
2022/04/26 06:48:10;;;;;;;12.27;2.15;;;;;;;;;;4953951;29;20394;-67
2022/04/26 06:50:36;;;;;;;;;;;;;;;;;;4954465;28;20050;-68
2022/04/26 06:53:02;;;;;;;3.50;1.13;;;;;;;;;;4953444;28;19923;-67
2022/04/26 06:55:28;;;;;;;2.75;1.20;;;;;;;;;;4954006;28;20417;-67
2022/04/26 06:57:54;;;;;;;4.32;1.55;;;;;;;;;;4953869;29;20043;-68
2022/04/26 07:00:20;;;;;;;4.88;1.52;;;;;;;;;;4953778;28;20054;-67
2022/04/26 07:02:46;;;;;;;3.92;1.20;;;;;;;;;;4953671;29;20051;-67
2022/04/26 07:05:14;;;;;;;5.15;1.38;;;;;;;;;;4953311;28;20043;-67
2022/04/26 07:07:41;;;;;;;3.08;1.52;;;;;;;;;;4953578;28;20072;-67
2022/04/26 07:10:07;;;;;;;7.45;1.98;;;;;;;;;;4953609;28;20073;-67
2022/04/26 07:12:33;;;;;;;8.52;1.75;;;;;;;;;;4953352;28;20051;-67
2022/04/26 07:14:59;;;;;;;10.05;1.73;;;;;;;;;;4953504;29;20047;-66
2022/04/26 07:17:25;;;;;;;3.35;1.42;;;;;;;;;;4953388;29;20401;-66
2022/04/26 07:19:52;;;;;;;2.97;1.40;;;;;;;;;;4953335;28;20047;-66
2022/04/26 07:22:18;;;;;;;2.22;1.20;;;;;;;;;;4952891;29;20143;-66
2022/04/26 07:24:44;;;;;;;4.15;1.40;;;;;;;;;;4953420;29;20051;-68
2022/04/26 07:27:10;;;;;;;5.30;1.45;;;;;;;;;;4960558;28;20054;-66
2022/04/26 07:29:40;;;;;;;4.65;1.38;;;;;;;;;;4971523;28;20045;-67
2022/04/26 07:32:07;;;;;;;6.35;1.30;;;;;;;;;;4972842;28;20400;-67
2022/04/26 07:34:33;;;;;;;4.20;1.70;;;;;;;;;;4971940;28;20046;-67
2022/04/26 07:37:02;;;;;;;3.33;1.42;;;;;;;;;;4971390;28;20078;-66
2022/04/26 07:39:28;;;;;;;3.33;1.23;;;;;;;;;;4972523;28;20203;-66
2022/04/26 07:41:54;;;;;;;5.50;1.60;;;;;;;;;;4972237;28;20134;-66
2022/04/26 07:44:21;;;;;;;2.67;1.20;;;;;;;;;;4971793;28;20039;-66
2022/04/26 07:46:48;;;;;;;2.72;1.40;;;;;;;;;;4972397;28;20499;-66
2022/04/26 07:49:15;;;;;;;4.38;1.38;;;;;;;;;;4971684;28;20081;-67
2022/04/26 07:51:42;;;;;;;3.45;1.20;;;;;;;;;;4971529;28;20138;-67
2022/04/26 07:54:08;;;;;;;3.58;1.50;;;;;;;;;;4971788;28;20074;-66
2022/04/26 07:56:34;;;;;;;4.03;1.20;;;;;;;;;;4971971;28;20188;-66
2022/04/26 07:59:01;;;;;;;3.22;1.58;;;;;;;;;;4971299;28;20046;-67
2022/04/26 08:01:28;;;;;;;4.07;1.20;;;;;;;;;;4971987;28;20066;-67
2022/04/26 08:03:54;;;;;;;2.35;1.20;;;;;;;;;;4968278;28;20054;-66
2022/04/26 08:06:20;;;;;;;2.28;1.30;;;;;;;;;;4971817;28;20176;-66
2022/04/26 08:08:47;;;;;;;3.85;1.48;;;;;;;;;;4970841;28;20091;-67
2022/04/26 08:11:13;;;;;;;3.05;1.50;;;;;;;;;;4971236;28;20043;-67
2022/04/26 08:13:40;;;;;;;2.45;1.25;;;;;;;;;;4971699;28;20468;-67
2022/04/26 08:16:06;;;;;;;3.38;1.48;;;;;;;;;;4970595;28;20047;-68
2022/04/26 08:18:33;;;;;;;3.80;1.30;;;;;;;;;;4971060;28;20050;-66
2022/04/26 08:20:59;;;;;;;2.13;1.30;;;;;;;;;;4971090;28;20047;-67
2022/04/26 08:23:25;;;;;;;2.40;1.27;;;;;;;;;;4971814;28;20049;-66
2022/04/26 08:28:36;;;;;;;3.60;1.35;;;;;;;;;;4971201;28;20082;-68
2022/04/26 08:31:02;;;;;;;2.55;1.20;;;;;;;;;;4970463;28;20134;-66
2022/04/26 08:33:30;;;;;;;3.13;1.50;;;;;;;;;;4970697;28;20039;-66
2022/04/26 08:35:56;;;;;;;3.17;1.52;;;;;;;;;;4970271;28;20571;-67
2022/04/26 08:38:22;;;;;;;4.13;1.27;;;;;;;;;;4971417;28;20110;-67
2022/04/26 08:40:48;;;;;;;5.20;1.60;;;;;;;;;;4971336;28;20043;-66
2022/04/26 08:43:14;;;;;;;3.25;1.13;;;;;;;;;;4969726;28;20055;-67
2022/04/26 08:45:41;;;;;;;3.70;1.50;;;;;;;;;;4968521;28;20049;-67
2022/04/26 08:51:04;;;;;;;3.28;1.88;;;;;;;;;;4966093;28;20058;-67
2022/04/26 08:53:32;;;;;;;2.58;1.30;;;;;;;;;;4962480;28;20039;-68
2022/04/26 08:56:01;;;;;;;4.43;1.92;;;;;;;;;;4953469;28;20059;-67
2022/04/26 08:58:31;;;;;;;3.10;1.63;;;;;;;;;;4968007;28;20401;-68
2022/04/26 09:01:10;;;;;;;4.47;1.75;;;;;;;;;;4967849;28;20122;-67
2022/04/26 09:03:55;;;;;;;4.13;1.50;;;;;;;;;;4966780;28;20054;-67
2022/04/26 09:06:23;;;;;;;2.90;1.73;;;;;;;;;;4966608;28;20046;-68
2022/04/26 09:08:49;;;;;;;2.70;1.30;;;;;;;;;;4968268;28;20436;-68
2022/04/26 09:11:27;;;;;;;3.08;1.50;;;;;;;;;;4968461;28;20042;-68
2022/04/26 09:13:54;;;;;;;7.85;2.05;;;;;;;;;;4968265;28;20049;-67
2022/04/26 09:16:21;;;;;;;3.63;1.48;;;;;;;;;;4968420;28;20043;-68
2022/04/26 09:19:06;;;;;;;3.00;1.40;;;;;;;;;;4968067;28;20420;-69
2022/04/26 09:21:32;;;;;;;3.42;1.60;;;;;;;;;;4969320;28;20050;-66
2022/04/26 09:24:01;;;;;;;2.47;1.40;;;;;;;;;;4966440;28;20054;-67
2022/04/26 09:26:34;;;;;;;2.70;1.35;;;;;;;;;;4959080;28;20039;-69
2022/04/26 09:29:00;;;;;;;2.88;1.67;;;;;;;;;;4967945;28;20058;-69
2022/04/26 09:31:28;;;;;;;4.25;1.30;;;;;;;;;;4967064;28;20039;-67
2022/04/26 09:33:57;;;;;;;3.50;1.65;;;;;;;;;;4967081;28;20085;-70
2022/04/26 09:36:28;;;;;;;3.20;1.50;;;;;;;;;;4963291;28;20409;-67
2022/04/26 09:38:59;;;;;;;4.07;1.73;;;;;;;;;;4967448;28;20039;-68
2022/04/26 09:41:26;;;;;;;3.20;1.60;;;;;;;;;;4967488;28;20051;-70
2022/04/26 09:44:01;;;;;;;3.28;1.65;;;;;;;;;;4967133;28;20378;-68
2022/04/26 09:46:45;;;;;;;5.13;1.88;;;;;;;;;;4967881;28;20057;-68
2022/04/26 09:49:15;;;;;;;4.10;1.80;;;;;;;;;;4967596;28;20133;-67
2022/04/26 09:51:45;;;;;;;3.45;1.70;;;;;;;;;;4966681;28;20050;-67
2022/04/26 09:54:12;;;;;;;3.03;1.83;;;;;;;;;;4967495;28;20081;-67
2022/04/26 09:56:39;;;;;;;3.53;1.88;;;;;;;;;;4954216;28;20043;-66
2022/04/26 09:59:05;;;;;;;4.05;1.92;;;;;;;;;;4962671;28;20051;-69
2022/04/26 10:01:35;;;;;;;3.97;1.90;;;;;;;;;;4969368;28;20063;-68
2022/04/26 10:04:03;;;;;;;4.15;1.73;;;;;;;;;;4964839;28;20051;-69
2022/04/26 10:06:37;;;;;;;3.33;1.88;;;;;;;;;;4962125;28;20042;-68
2022/04/26 10:09:04;;;;;;;3.55;1.80;;;;;;;;;;4967384;28;20045;-67
2022/04/26 10:11:30;;;;;;;2.70;1.58;;;;;;;;;;4967278;28;20086;-67
2022/04/26 10:13:57;;;;;;;4.68;2.08;;;;;;;;;;4967434;28;20043;-68
2022/04/26 10:16:23;;;;;;;5.90;2.25;;;;;;;;;;4969278;28;20045;-67
2022/04/26 10:18:52;;;;;;;3.15;1.70;;;;;;;;;;4971971;28;20050;-67
2022/04/26 10:21:24;;;;;;;3.40;1.60;;;;;;;;;;4967661;28;20079;-67
2022/04/26 10:23:56;;;;;;;2.75;1.67;;;;;;;;;;4971444;28;20042;-66
2022/04/26 10:26:24;;;;;;;6.60;1.98;;;;;;;;;;4971051;28;20046;-66
2022/04/26 10:28:55;;;;;;;3.70;1.88;;;;;;;;;;4963291;28;20149;-66
2022/04/26 10:31:36;;;;;;;3.20;1.88;;;;;;;;;;4970324;28;20035;-68
2022/04/26 10:34:23;;;;;;;4.05;1.80;;;;;;;;;;4968743;28;20551;-67
2022/04/26 10:36:50;;;;;;;3.60;1.98;;;;;;;;;;4968087;28;20739;-66
2022/04/26 10:39:23;;;;;;;4.72;1.95;;;;;;;;;;4970316;28;20046;-66
2022/04/26 10:41:49;;;;;;;3.97;1.60;;;;;;;;;;4969174;28;20118;-67
2022/04/26 10:44:16;;;;;;;5.47;2.30;;;;;;;;;;4964698;28;20073;-67
2022/04/26 10:46:50;;;;;;;2.92;1.67;;;;;;;;;;4970969;28;20043;-67
2022/04/26 10:49:26;;;;;;;3.92;1.75;;;;;;;;;;4970114;28;20054;-67
2022/04/26 10:51:53;;;;;;;3.85;1.70;;;;;;;;;;4970096;28;20187;-67
2022/04/26 10:54:38;;;;;;;3.45;1.63;;;;;;;;;;4971254;28;20050;-66
2022/04/26 10:57:04;;;;;;;3.97;1.90;;;;;;;;;;4961314;28;20062;-66
2022/04/26 10:59:30;;;;;;;4.25;1.70;;;;;;;;;;4970008;28;20039;-67
2022/04/26 11:01:56;;;;;;;6.90;1.90;;;;;;;;;;4969068;28;20042;-67
2022/04/26 11:04:22;;;;;;;4.43;1.67;;;;;;;;;;4971353;28;20039;-67
2022/04/26 11:06:48;;;;;;;3.42;1.85;;;;;;;;;;4969841;28;20053;-67
2022/04/26 11:09:15;;;;;;;3.20;1.70;;;;;;;;;;4968860;28;20420;-67
2022/04/26 11:11:50;;;;;;;5.13;1.70;;;;;;;;;;4968185;28;20081;-67
2022/04/26 11:14:17;;;;;;;3.35;1.60;;;;;;;;;;4967483;28;20055;-67
2022/04/26 11:17:06;;;;;;;3.53;1.65;;;;;;;;;;4966696;28;20042;-67
2022/04/26 11:19:33;;;;;;;4.65;1.90;;;;;;;;;;4968572;28;20057;-66
2022/04/26 11:22:07;;;;;;;3.28;1.35;;;;;;;;;;4969778;28;20046;-67
2022/04/26 11:30:04;;;;;;;4.80;1.65;;;;;;;;;;4968927;28;20054;-69
2022/04/26 11:32:30;;;;;;;8.77;1.90;;;;;;;;;;4970170;28;20050;-68
2022/04/26 11:34:57;;;;;;;10.90;1.80;;;;;;;;;;4968672;28;20039;-68
2022/04/26 11:37:23;;;;;;;4.90;2.10;;;;;;;;;;4969100;28;20054;-69
2022/04/26 11:39:49;;;;;;;5.18;1.83;;;;;;;;;;4969153;28;20070;-68
2022/04/26 11:42:16;;;;;;;3.92;1.60;;;;;;;;;;4953116;28;20055;-69
2022/04/26 11:44:57;;;;;;;2.92;1.70;;;;;;;;;;4972533;28;20046;-69
2022/04/26 11:47:43;;;;;;;5.75;1.70;;;;;;;;;;4971101;28;20057;-68
2022/04/26 11:50:14;;;;;;;4.80;1.70;;;;;;;;;;4970732;28;20047;-68
2022/04/26 11:52:41;;;;;;;5.05;1.67;;;;;;;;;;4971537;28;20169;-68
2022/04/26 11:55:07;;;;;;;4.45;1.50;;;;;;;;;;4972452;28;20051;-69
2022/04/26 11:57:34;;;;;;;6.07;1.70;;;;;;;;;;4971618;28;20047;-68
2022/04/26 12:00:00;;;;;;;4.95;1.92;;;;;;;;;;4962120;28;20420;-68
2022/04/26 12:02:26;;;;;;;4.72;1.70;;;;;;;;;;4954677;28;20047;-69
2022/04/26 12:04:54;;;;;;;5.43;2.22;;;;;;;;;;4972319;28;20046;-68
2022/04/26 12:07:20;;;;;;;3.83;1.95;;;;;;;;;;4970987;28;20039;-68
2022/04/26 12:09:47;;;;;;;2.88;1.52;;;;;;;;;;4970564;28;21042;-69
2022/04/26 12:12:13;;;;;;;4.97;2.00;;;;;;;;;;4971298;28;20055;-67
2022/04/26 12:14:43;;;;;;;3.08;1.60;;;;;;;;;;4971340;28;20162;-67
2022/04/26 12:17:18;;;;;;;6.30;2.55;;;;;;;;;;4971949;28;20043;-69
2022/04/26 12:19:51;;;;;;;8.57;3.00;;;;;;;;;;4971102;28;20097;-68
2022/04/26 12:22:18;;;;;;;5.35;2.05;;;;;;;;;;4971058;28;20141;-68
2022/04/26 12:24:48;;;;;;;2.70;1.38;;;;;;;;;;4971369;28;20734;-68
2022/04/26 12:27:19;;;;;;;4.88;1.60;;;;;;;;;;4971852;28;20060;-67
2022/04/26 12:29:49;;;;;;;2.95;1.30;;;;;;;;;;4970868;28;20519;-68
2022/04/26 12:32:19;;;;;;;6.63;1.88;;;;;;;;;;4971603;28;20054;-68
2022/04/26 12:34:48;;;;;;;6.07;2.20;;;;;;;;;;4970717;28;20055;-69
2022/04/26 12:37:21;;;;;;;3.03;1.67;;;;;;;;;;4970969;28;20117;-70
2022/04/26 12:39:48;;;;;;;8.35;1.48;;;;;;;;;;4959145;28;20058;-69
2022/04/26 12:42:29;;;;;;;3.60;1.85;;;;;;;;;;4952263;28;20055;-69
2022/04/26 12:44:59;;;;;;;12.10;1.65;;;;;;;;;;4935254;29;20059;-71
2022/04/26 12:52:57;;;;;;;9.68;1.50;;;;;;;;;;4961968;28;20495;-69
2022/04/26 12:55:34;;;;;;;2.90;1.48;;;;;;;;;;4969391;28;20568;-69
2022/04/26 12:58:10;;;;;;;5.20;1.88;;;;;;;;;;4970958;28;20468;-67
2022/04/26 13:00:39;;;;;;;3.72;1.50;;;;;;;;;;4970939;28;20056;-68
2022/04/26 13:03:06;;;;;;;;;;;;;;;;;;4971548;28;20057;-68
2022/04/26 13:05:36;;;;;;;6.15;2.00;;;;;;;;;;4971098;28;19921;-68
2022/04/26 13:08:02;;;;;;;3.95;1.38;;;;;;;;;;4963717;28;20069;-67
2022/04/26 13:10:28;;;;;;;4.53;1.58;;;;;;;;;;4971034;28;20464;-68
2022/04/26 13:12:54;;;;;;;3.35;1.55;;;;;;;;;;4970834;28;20091;-68
2022/04/26 13:15:23;;;;;;;5.63;1.33;;;;;;;;;;4968585;28;20101;-68
2022/04/26 13:17:49;;;;;;;4.88;1.58;;;;;;;;;;4967113;28;20089;-68
2022/04/26 13:20:15;;;;;;;3.42;1.80;;;;;;;;;;4968744;28;20039;-67
2022/04/26 13:22:41;;;;;;;3.85;1.45;;;;;;;;;;4964307;28;20199;-67
2022/04/26 13:25:08;;;;;;;3.85;1.10;;;;;;;;;;4968488;28;20046;-67
2022/04/26 13:27:34;;;;;;;3.10;1.27;;;;;;;;;;4968812;28;20042;-68
2022/04/26 13:30:01;;;;;;;3.67;1.40;;;;;;;;;;4967616;28;20358;-67
2022/04/26 13:32:30;;;;;;;3.30;1.38;;;;;;;;;;4967833;28;20045;-67
2022/04/26 13:34:57;;;;;;;2.30;1.40;;;;;;;;;;4965361;28;20047;-67
2022/04/26 13:37:24;;;;;;;6.03;1.42;;;;;;;;;;4967900;28;20082;-67
2022/04/26 13:39:50;;;;;;;2.95;1.40;;;;;;;;;;4967114;28;20086;-68
2022/04/26 13:42:17;;;;;;;3.47;1.58;;;;;;;;;;4966024;28;20043;-67
2022/04/26 13:44:43;;;;;;;3.72;1.50;;;;;;;;;;4966021;28;20047;-67
2022/04/26 13:47:09;;;;;;;2.80;1.30;;;;;;;;;;4967956;28;20544;-68
2022/04/26 13:49:36;;;;;;;3.50;1.48;;;;;;;;;;4966879;28;20046;-68
2022/04/26 13:52:03;;;;;;;3.72;1.30;;;;;;;;;;4967527;28;20038;-67
2022/04/26 13:54:29;;;;;;;2.97;1.35;;;;;;;;;;4965178;28;20050;-68
2022/04/26 13:56:56;;;;;;;3.08;1.60;;;;;;;;;;4966659;28;20127;-68
2022/04/26 13:59:22;;;;;;;3.05;1.40;;;;;;;;;;4967037;28;20074;-68
2022/04/26 14:01:53;;;;;;;2.60;1.33;;;;;;;;;;4967447;28;21174;-68
2022/04/26 14:04:20;;;;;;;2.30;1.17;;;;;;;;;;4968386;28;20043;-67
2022/04/26 14:06:47;;;;;;;2.67;1.25;;;;;;;;;;4968740;28;20055;-67
2022/04/26 14:09:13;;;;;;;3.45;1.48;;;;;;;;;;4965909;28;20457;-68
2022/04/26 14:11:39;;;;;;;2.95;1.55;;;;;;;;;;4967643;28;20050;-67
2022/04/26 14:22:20;;;;;;;3.92;1.40;;;;;;;;;;4960009;28;20054;-68
2022/04/26 14:24:48;;;;;;;3.67;1.58;;;;;;;;;;4969219;28;20054;-68
2022/04/26 14:27:14;;;;;;;4.22;1.30;;;;;;;;;;4967953;28;20054;-67
2022/04/26 14:29:42;;;;;;;4.47;1.58;;;;;;;;;;4970273;28;20051;-67
2022/04/26 14:32:08;;;;;;;2.15;1.10;;;;;;;;;;4969978;28;20046;-70
2022/04/26 14:34:34;;;;;;;3.85;1.35;;;;;;;;;;4969435;28;20084;-70
2022/04/26 14:37:02;;;;;;;4.57;1.45;;;;;;;;;;4968413;28;20478;-69
2022/04/26 14:39:28;;;;;;;2.30;1.30;;;;;;;;;;4968784;28;20047;-70
2022/04/26 14:41:54;;;;;;;2.83;1.40;;;;;;;;;;4951581;28;20110;-69
2022/04/26 14:44:20;;;;;;;2.30;1.38;;;;;;;;;;4950790;28;20051;-66
2022/04/26 14:46:46;;;;;;;3.33;1.65;;;;;;;;;;4949034;28;20044;-67
2022/04/26 14:49:12;;;;;;;2.92;1.48;;;;;;;;;;4958625;28;20054;-66
2022/04/26 14:51:38;;;;;;;2.53;1.40;;;;;;;;;;4969765;28;20051;-66
2022/04/26 14:54:04;;;;;;;4.78;1.73;;;;;;;;;;4969292;28;20086;-68
2022/04/26 14:56:30;;;;;;;3.08;1.40;;;;;;;;;;4969423;28;20105;-67
2022/04/26 14:59:00;;;;;;;3.20;1.40;;;;;;;;;;4969675;28;20078;-67
2022/04/26 15:01:29;;;;;;;;;;;;;;;;;;4970254;28;20059;-67
2022/04/26 15:03:55;;;;;;;1.40;1.00;;;;;;;;;;4964217;28;19945;-66
2022/04/26 15:06:21;;;;;;;2.45;1.55;;;;;;;;;;4953670;28;20058;-67
2022/04/26 15:11:32;;;;;;;5.15;1.50;;;;;;;;;;4959295;28;20082;-67
2022/04/26 15:16:47;;;;;;;4.60;1.50;;;;;;;;;;4972626;28;20060;-66
2022/04/26 15:19:14;;;;;;;2.50;1.20;;;;;;;;;;4972872;28;20051;-67
2022/04/26 15:21:43;;;;;;;2.75;1.50;;;;;;;;;;4972632;28;20423;-67
2022/04/26 15:24:10;;;;;;;3.92;1.23;;;;;;;;;;4972080;28;20038;-67
2022/04/26 15:26:36;;;;;;;2.22;1.20;;;;;;;;;;4974425;28;20084;-68
2022/04/26 15:29:03;;;;;;;2.72;1.40;;;;;;;;;;4972300;28;20053;-66
2022/04/26 15:31:29;;;;;;;2.92;1.65;;;;;;;;;;4964182;28;20097;-66
2022/04/26 15:33:55;;;;;;;3.70;1.98;;;;;;;;;;4972628;28;20039;-66
2022/04/26 15:36:21;;;;;;;3.10;2.03;;;;;;;;;;4972231;28;20165;-66
2022/04/26 15:38:47;;;;;;;5.07;2.30;;;;;;;;;;4971972;28;20046;-67
2022/04/26 15:41:14;;;;;;;5.07;2.83;;;;;;;;;;4972555;28;20046;-66
2022/04/26 15:43:41;;;;;;;4.82;2.30;;;;;;;;;;4972124;28;20047;-66
2022/04/26 15:46:08;;;;;;;5.72;2.60;;;;;;;;;;4971864;28;20547;-67
2022/04/26 15:48:37;;;;;;;4.93;2.45;;;;;;;;;;4971534;28;20042;-68
2022/04/26 15:51:07;;;;;;;5.72;2.70;;;;;;;;;;4972422;28;20561;-67
2022/04/26 15:53:33;;;;;;;6.20;2.72;;;;;;;;;;4972836;28;20534;-67
2022/04/26 15:55:59;;;;;;;5.55;2.67;;;;;;;;;;4971122;28;20047;-67
2022/04/26 15:58:25;;;;;;;7.32;3.00;;;;;;;;;;4973483;28;20042;-67
2022/04/26 16:00:54;;;;;;;4.95;2.65;;;;;;;;;;4972880;28;20141;-67
2022/04/26 16:03:20;;;;;;;6.63;3.20;;;;;;;;;;4972077;28;20098;-68
2022/04/26 16:05:47;;;;;;;7.13;2.97;;;;;;;;;;4971607;28;20042;-67
2022/04/26 16:08:13;;;;;;;5.95;3.13;;;;;;;;;;4971160;28;20377;-68
2022/04/26 16:21:39;;;;;;;7.97;3.42;;;;;;;;;;4971188;28;20051;-68
2022/04/26 16:24:05;;;;;;;6.43;3.30;;;;;;;;;;4971756;28;20049;-67
2022/04/26 16:26:34;;;;;;;6.07;3.47;;;;;;;;;;4971907;28;20043;-69
2022/04/26 16:29:03;;;;;;;4.78;2.67;;;;;;;;;;4970713;28;20046;-69
2022/04/26 16:31:30;;;;;;;6.15;3.13;;;;;;;;;;4970324;28;20457;-69
2022/04/26 16:34:01;;;;;;;6.18;3.00;;;;;;;;;;4971418;28;20145;-70
2022/04/26 16:36:28;;;;;;;6.43;3.50;;;;;;;;;;4970954;28;20054;-68
2022/04/26 16:38:55;;;;;;;6.50;3.05;;;;;;;;;;4971186;28;20117;-68
2022/04/26 16:41:21;;;;;;;6.75;3.35;;;;;;;;;;4969743;28;20512;-68
2022/04/26 16:43:49;;;;;;;6.45;3.00;;;;;;;;;;4971121;28;20208;-67
2022/04/26 16:46:19;;;;;;;6.25;3.28;;;;;;;;;;4963106;28;20447;-68
2022/04/26 16:48:46;;;;;;;5.20;3.30;;;;;;;;;;4970563;28;20050;-68
2022/04/26 16:51:14;;;;;;;8.95;3.53;;;;;;;;;;4972348;28;20042;-71
2022/04/26 16:53:40;;;;;;;7.13;3.73;;;;;;;;;;4961574;28;20110;-69
2022/04/26 16:56:06;;;;;;;7.13;3.40;;;;;;;;;;4951929;29;20054;-70
2022/04/26 16:58:32;;;;;;;5.88;3.20;;;;;;;;;;4950653;28;20576;-70
2022/04/26 17:00:58;;;;;;;6.65;3.53;;;;;;;;;;4965150;28;20074;-71
2022/04/26 17:03:24;;;;;;;10.02;4.03;;;;;;;;;;4970580;28;20421;-70
2022/04/26 17:05:50;;;;;;;7.03;3.75;;;;;;;;;;4971256;28;20053;-72
2022/04/26 17:08:17;;;;;;;5.53;3.33;;;;;;;;;;4971255;28;20078;-70
2022/04/26 17:10:44;;;;;;;7.68;3.42;;;;;;;;;;4971240;28;20055;-72
2022/04/26 17:13:10;;;;;;;6.30;3.55;;;;;;;;;;4970148;28;20129;-69
2022/04/26 17:15:36;;;;;;;6.53;3.33;;;;;;;;;;4969997;28;20039;-70
2022/04/26 17:18:03;;;;;;;6.20;3.30;;;;;;;;;;4971389;28;20050;-70
2022/04/26 17:20:33;;;;;;;6.53;3.75;;;;;;;;;;4970832;28;20053;-70
2022/04/26 17:22:59;;;;;;;7.40;3.75;;;;;;;;;;4970410;28;20051;-69
2022/04/26 17:25:26;;;;;;;7.22;3.50;;;;;;;;;;4968797;28;20480;-68
2022/04/26 17:27:52;;;;;;;7.32;3.53;;;;;;;;;;4969709;28;20436;-70
2022/04/26 17:30:19;;;;;;;7.25;3.17;;;;;;;;;;4964571;28;20043;-70
2022/04/26 17:32:46;;;;;;;6.13;3.35;;;;;;;;;;4950147;29;20051;-68
2022/04/26 17:35:12;;;;;;;6.82;3.63;;;;;;;;;;4951086;28;20113;-68
2022/04/26 17:37:39;;;;;;;6.70;3.38;;;;;;;;;;4955438;28;20383;-70
2022/04/26 17:40:06;;;;;;;6.28;3.55;;;;;;;;;;4969891;28;20476;-68
2022/04/26 17:42:36;;;;;;;7.15;3.60;;;;;;;;;;4964725;28;20521;-70
2022/04/26 17:45:06;;;;;;;6.45;3.40;;;;;;;;;;4965683;28;20050;-68
2022/04/26 17:47:36;;;;;;;6.32;3.65;;;;;;;;;;4969749;28;20128;-68
2022/04/26 17:50:06;;;;;;;7.32;3.22;;;;;;;;;;4969246;28;20057;-68
2022/04/26 17:52:32;;;;;;;6.53;3.35;;;;;;;;;;4969740;28;20047;-67
2022/04/26 17:57:44;;;;;;;5.95;3.00;;;;;;;;;;4969201;28;20068;-69
2022/04/26 18:00:11;;;;;;;5.60;3.10;;;;;;;;;;4969874;28;20055;-68
2022/04/26 18:02:38;;;;;;;6.72;3.58;;;;;;;;;;4970180;28;20057;-69
2022/04/26 18:05:04;;;;;;;6.35;3.30;;;;;;;;;;4969335;28;20536;-69
2022/04/26 18:07:30;;;;;;;7.07;3.42;;;;;;;;;;4970108;28;20047;-69
2022/04/26 18:09:56;;;;;;;5.95;3.22;;;;;;;;;;4968299;28;20078;-69
2022/04/26 18:12:22;;;;;;;6.90;3.15;;;;;;;;;;4963290;28;20046;-68
2022/04/26 18:14:48;;;;;;;6.68;3.05;;;;;;;;;;4957604;28;20057;-68
2022/04/26 18:17:17;;;;;;;6.10;3.28;;;;;;;;;;4969323;28;20548;-68
2022/04/26 18:19:43;;;;;;;6.57;3.28;;;;;;;;;;4969414;28;20109;-68
2022/04/26 18:22:10;;;;;;;6.32;3.15;;;;;;;;;;4960329;28;20054;-69
2022/04/26 18:24:36;;;;;;;5.78;3.15;;;;;;;;;;4954363;28;20057;-67
2022/04/26 18:27:02;;;;;;;6.28;3.20;;;;;;;;;;4968780;28;20500;-68
2022/04/26 18:29:28;;;;;;;6.10;3.08;;;;;;;;;;4968253;28;20043;-69
2022/04/26 18:31:55;;;;;;;6.55;3.08;;;;;;;;;;4969657;28;20047;-68
2022/04/26 18:34:21;;;;;;;4.85;2.92;;;;;;;;;;4968739;28;20071;-67
2022/04/26 18:36:51;;;;;;;5.65;2.90;;;;;;;;;;4967583;28;20051;-68
2022/04/26 18:39:17;;;;;;;6.20;3.40;;;;;;;;;;4973339;28;20059;-68
2022/04/26 18:41:44;;;;;;;7.60;3.67;;;;;;;;;;4972485;28;20057;-69
2022/04/26 18:44:16;;;;;;;5.07;3.13;;;;;;;;;;4973239;28;20125;-68
2022/04/26 18:46:42;;;;;;;6.80;3.30;;;;;;;;;;4968746;28;20054;-69
2022/04/26 18:49:08;;;;;;;5.63;3.00;;;;;;;;;;4971986;28;20042;-68
2022/04/26 18:51:35;;;;;;;6.53;3.22;;;;;;;;;;4972627;28;20098;-69
2022/04/26 18:54:01;;;;;;;7.90;3.70;;;;;;;;;;4971325;28;20062;-68
2022/04/26 18:56:27;;;;;;;5.43;3.15;;;;;;;;;;4972702;28;20054;-68
2022/04/26 18:58:53;;;;;;;7.45;3.70;;;;;;;;;;4972828;28;20516;-69
2022/04/26 19:01:19;;;;;;;6.57;3.70;;;;;;;;;;4973519;28;20046;-68
2022/04/26 19:03:47;;;;;;;6.43;3.13;;;;;;;;;;4972464;28;20047;-68
2022/04/26 19:06:13;;;;;;;8.57;3.70;;;;;;;;;;4972445;28;20129;-68
2022/04/26 19:08:39;;;;;;;5.68;3.25;;;;;;;;;;4972442;28;20524;-67